TimeCDT,TemperatureF,Dew PointF,Humidity,Sea Level PressureIn,VisibilityMPH,Wind Direction,Wind SpeedMPH,Gust SpeedMPH,PrecipitationIn,Events,Conditions,WindDirDegrees,DateUTC
12:53 AM,59.0,50.0,72,30.07,10.0,North,6.9,-,N/A,,Clear,10,2013-07-01 05:53:00
1:53 AM,57.9,50.0,75,30.07,10.0,North,6.9,-,N/A,,Clear,360,2013-07-01 06:53:00
2:53 AM,57.9,50.0,75,30.07,10.0,North,5.8,-,N/A,,Clear,360,2013-07-01 07:53:00
3:53 AM,57.0,50.0,77,30.08,10.0,North,4.6,-,N/A,,Clear,360,2013-07-01 08:53:00
4:53 AM,55.9,48.9,77,30.09,10.0,North,6.9,-,N/A,,Clear,360,2013-07-01 09:53:00
5:53 AM,55.0,48.9,80,30.10,9.0,North,6.9,-,N/A,,Clear,350,2013-07-01 10:53:00
6:53 AM,55.9,50.0,80,30.12,9.0,North,8.1,-,N/A,,Clear,350,2013-07-01 11:53:00
7:53 AM,60.1,52.0,75,30.12,10.0,North,8.1,-,N/A,,Clear,360,2013-07-01 12:53:00
8:53 AM,66.0,53.1,63,30.14,10.0,North,10.4,-,N/A,,Clear,360,2013-07-01 13:53:00
9:53 AM,70.0,55.9,61,30.13,10.0,North,10.4,-,N/A,,Clear,360,2013-07-01 14:53:00
10:53 AM,73.9,55.9,53,30.13,10.0,North,10.4,-,N/A,,Clear,10,2013-07-01 15:53:00
11:53 AM,77.0,57.0,50,30.12,10.0,NNE,12.7,-,N/A,,Clear,20,2013-07-01 16:53:00
12:53 PM,78.1,54.0,43,30.11,10.0,North,11.5,19.6,N/A,,Clear,10,2013-07-01 17:53:00
1:53 PM,79.0,53.1,40,30.10,10.0,NE,13.8,23.0,N/A,,Clear,40,2013-07-01 18:53:00
2:53 PM,80.1,55.0,42,30.09,10.0,NNE,9.2,24.2,N/A,,Clear,30,2013-07-01 19:53:00
3:53 PM,80.1,54.0,40,30.09,10.0,NE,11.5,21.9,N/A,,Partly Cloudy,40,2013-07-01 20:53:00
4:53 PM,79.0,53.1,40,30.08,10.0,NNE,12.7,19.6,N/A,,Partly Cloudy,30,2013-07-01 21:53:00
5:53 PM,79.0,52.0,39,30.08,10.0,NNE,9.2,18.4,N/A,,Clear,30,2013-07-01 22:53:00
6:53 PM,77.0,53.1,43,30.08,10.0,NE,11.5,-,N/A,,Clear,50,2013-07-01 23:53:00
7:53 PM,73.9,52.0,46,30.09,10.0,NE,9.2,-,N/A,,Clear,40,2013-07-02 00:53:00
8:53 PM,70.0,51.1,51,30.09,10.0,ENE,6.9,-,N/A,,Clear,60,2013-07-02 01:53:00
9:53 PM,63.0,51.1,65,30.10,10.0,NE,5.8,-,N/A,,Clear,40,2013-07-02 02:53:00
10:53 PM,63.0,50.0,63,30.11,10.0,NE,4.6,-,N/A,,Clear,40,2013-07-02 03:53:00
11:53 PM,62.1,51.1,67,30.11,10.0,North,3.5,-,N/A,,Clear,360,2013-07-02 04:53:00